Time;durP1;ratioP1;P1;durP2;ratioP2;P2;SDS_P1;SDS_P2;PMS_P1;PMS_P2;Temp;Humidity;BMP_temperature;BMP_pressure;BME280_temperature;BME280_humidity;BME280_pressure;Samples;Min_cycle;Max_cycle;Signal;HPM_P1;HPM_P2
2022/03/20 00:00:32;;;;;;;7.60;4.23;;;5.70;99.90;;;;;;5070776;28;20225;-77
2022/03/20 00:02:57;;;;;;;7.63;4.10;;;5.70;99.90;;;;;;5068312;28;20293;-78
2022/03/20 00:05:23;;;;;;;8.40;4.27;;;5.60;99.90;;;;;;5055483;28;20250;-78
2022/03/20 00:07:49;;;;;;;7.97;4.40;;;5.60;99.90;;;;;;5050341;28;20176;-78
2022/03/20 00:10:16;;;;;;;11.00;4.80;;;5.60;99.90;;;;;;5049770;28;20199;-78
2022/03/20 00:12:42;;;;;;;9.17;4.63;;;5.60;99.90;;;;;;5050411;28;20180;-78
2022/03/20 00:15:09;;;;;;;9.83;5.27;;;5.60;99.90;;;;;;5049770;28;20178;-78
2022/03/20 00:17:36;;;;;;;5.30;4.47;;;5.50;99.90;;;;;;5050762;28;20182;-77
2022/03/20 00:20:03;;;;;;;10.83;5.33;;;5.50;99.90;;;;;;5051168;28;20199;-77
2022/03/20 00:22:30;;;;;;;9.17;5.40;;;5.50;99.90;;;;;;5050672;28;20214;-78
2022/03/20 00:24:56;;;;;;;6.30;4.73;;;5.40;99.90;;;;;;5051541;28;20175;-78
2022/03/20 00:27:22;;;;;;;10.20;5.07;;;5.50;99.90;;;;;;5050799;28;20200;-77
2022/03/20 00:29:47;;;;;;;8.70;5.50;;;5.50;99.90;;;;;;5057335;28;20258;-77
2022/03/20 00:32:14;;;;;;;10.17;5.40;;;5.50;99.90;;;;;;5052363;28;20176;-77
2022/03/20 00:34:40;;;;;;;7.07;5.07;;;5.50;99.90;;;;;;5050673;28;20203;-77
2022/03/20 00:37:07;;;;;;;8.87;5.70;;;5.40;99.90;;;;;;5050865;28;20176;-77
2022/03/20 00:39:34;;;;;;;9.93;6.30;;;5.40;99.90;;;;;;5050052;28;20199;-76
2022/03/20 00:42:00;;;;;;;9.70;5.70;;;5.40;99.90;;;;;;5041226;28;20233;-78
2022/03/20 00:44:25;;;;;;;11.13;5.67;;;5.40;99.90;;;;;;5050358;28;20183;-77
2022/03/20 00:46:51;;;;;;;10.27;5.57;;;5.30;99.90;;;;;;5037041;28;20632;-76
2022/03/20 00:49:17;;;;;;;8.53;5.67;;;5.30;99.90;;;;;;5059131;28;20221;-78
2022/03/20 00:51:43;;;;;;;13.50;6.27;;;5.30;99.90;;;;;;5050099;28;20191;-77
2022/03/20 00:54:10;;;;;;;11.87;6.80;;;5.20;99.90;;;;;;5044832;28;20191;-78
2022/03/20 00:56:37;;;;;;;13.37;6.20;;;5.20;99.90;;;;;;5047420;28;20265;-78
2022/03/20 00:59:04;;;;;;;10.10;6.60;;;5.20;99.90;;;;;;5055828;28;20205;-78
2022/03/20 01:01:29;;;;;;;11.80;6.33;;;5.20;99.90;;;;;;5050600;28;20178;-77
2022/03/20 01:03:56;;;;;;;13.83;6.90;;;5.20;99.90;;;;;;5040819;28;20185;-80
2022/03/20 01:06:22;;;;;;;12.77;7.17;;;5.20;99.90;;;;;;5042920;28;20175;-78
2022/03/20 01:08:52;;;;;;;11.43;6.77;;;5.20;99.90;;;;;;5036707;28;20288;-78
2022/03/20 01:11:18;;;;;;;13.50;7.37;;;5.20;99.90;;;;;;5040426;28;20185;-80
2022/03/20 01:13:44;;;;;;;12.60;7.17;;;5.20;99.90;;;;;;5037247;28;20194;-78
2022/03/20 01:16:10;;;;;;;12.80;6.97;;;5.10;99.90;;;;;;5048951;28;20167;-78
2022/03/20 01:18:37;;;;;;;14.83;7.43;;;5.10;99.90;;;;;;5053077;28;20182;-78
2022/03/20 01:21:03;;;;;;;10.53;6.77;;;5.10;99.90;;;;;;5052870;28;20203;-78
2022/03/20 01:23:29;;;;;;;11.27;7.00;;;5.10;99.90;;;;;;5047576;28;20233;-77
2022/03/20 01:25:55;;;;;;;12.00;7.10;;;5.10;99.90;;;;;;5044436;28;20187;-77
2022/03/20 01:28:23;;;;;;;9.87;7.10;;;5.00;99.90;;;;;;5064193;28;20175;-78
2022/03/20 01:30:49;;;;;;;14.27;8.03;;;5.00;99.90;;;;;;5062970;28;20179;-78
2022/03/20 01:33:16;;;;;;;11.07;7.63;;;5.00;99.90;;;;;;5041427;28;20179;-77
2022/03/20 01:35:42;;;;;;;12.70;8.07;;;4.90;99.90;;;;;;5054045;28;20217;-77
2022/03/20 01:38:08;;;;;;;12.23;7.87;;;4.90;99.90;;;;;;5041471;28;20178;-78
2022/03/20 01:40:34;;;;;;;13.80;7.47;;;4.80;99.90;;;;;;5042918;28;20230;-79
2022/03/20 01:43:01;;;;;;;11.87;7.60;;;4.90;99.90;;;;;;5036923;28;20199;-77
2022/03/20 01:45:27;;;;;;;16.97;8.00;;;4.80;99.90;;;;;;5034411;28;20183;-77
2022/03/20 01:47:54;;;;;;;12.47;7.73;;;4.80;99.90;;;;;;5047295;28;20228;-78
2022/03/20 01:50:25;;;;;;;14.30;8.17;;;4.80;99.90;;;;;;5059983;28;20589;-78
2022/03/20 01:52:53;;;;;;;14.60;8.10;;;4.80;99.90;;;;;;5052131;28;20195;-79
2022/03/20 01:55:21;;;;;;;14.70;8.33;;;4.80;99.90;;;;;;5034838;28;20196;-78
2022/03/20 01:57:46;;;;;;;12.30;7.77;;;4.70;99.90;;;;;;5048152;28;20234;-77
2022/03/20 02:00:16;;;;;;;11.50;7.70;;;4.70;99.90;;;;;;5047170;28;20206;-77
2022/03/20 02:02:41;;;;;;;13.70;8.17;;;4.70;99.90;;;;;;5033682;28;20707;-80
2022/03/20 02:05:09;;;;;;;13.07;8.20;;;4.70;99.90;;;;;;5044889;28;20179;-77
2022/03/20 02:07:35;;;;;;;15.33;8.37;;;4.60;99.90;;;;;;5049629;28;20178;-77
2022/03/20 02:10:03;;;;;;;12.20;8.70;;;4.60;99.90;;;;;;5045933;28;20198;-78
2022/03/20 02:12:29;;;;;;;13.33;8.40;;;4.60;99.90;;;;;;5040534;28;20191;-78
2022/03/20 02:15:01;;;;;;;15.27;8.83;;;4.50;99.90;;;;;;5036927;28;20183;-79
2022/03/20 02:17:29;;;;;;;13.77;8.73;;;4.50;99.90;;;;;;5044862;28;20193;-77
2022/03/20 02:19:58;;;;;;;16.03;8.70;;;4.50;99.90;;;;;;5029619;28;20199;-76
2022/03/20 02:22:25;;;;;;;13.70;8.67;;;4.50;99.90;;;;;;5030264;28;20218;-79
2022/03/20 02:24:51;;;;;;;11.87;8.17;;;4.50;99.90;;;;;;5030492;28;20231;-77
2022/03/20 02:27:27;;;;;;;11.83;8.47;;;4.40;99.90;;;;;;5044812;28;20198;-77
2022/03/20 02:29:55;;;;;;;15.33;9.33;;;4.40;99.90;;;;;;5052913;28;20590;-79
2022/03/20 02:32:29;;;;;;;12.40;8.67;;;4.30;99.90;;;;;;5048893;28;20182;-79
2022/03/20 02:34:56;;;;;;;12.73;8.53;;;4.30;99.90;;;;;;5044713;28;20196;-78
2022/03/20 02:37:23;;;;;;;13.73;8.93;;;4.30;99.90;;;;;;5038944;28;20185;-78
2022/03/20 02:39:51;;;;;;;13.87;8.30;;;4.30;99.90;;;;;;5033341;28;20229;-80
2022/03/20 02:42:17;;;;;;;14.37;8.70;;;4.30;99.90;;;;;;5047168;28;20195;-77
2022/03/20 02:45:03;;;;;;;13.63;8.03;;;4.20;99.90;;;;;;5047860;28;20182;-78
2022/03/20 02:47:39;;;;;;;12.67;8.03;;;4.20;99.90;;;;;;5048073;28;20192;-77
2022/03/20 02:50:08;;;;;;;15.57;9.53;;;4.20;99.90;;;;;;5064115;28;20197;-77
2022/03/20 02:52:43;;;;;;;15.40;9.00;;;4.10;99.90;;;;;;5047139;28;20183;-78
2022/03/20 02:55:09;;;;;;;15.60;8.60;;;4.10;99.90;;;;;;5039643;28;20661;-78
2022/03/20 02:57:35;;;;;;;12.73;8.37;;;4.10;99.90;;;;;;5051325;28;20180;-79
2022/03/20 03:00:04;;;;;;;13.73;8.40;;;4.10;99.90;;;;;;5050303;28;20203;-78
2022/03/20 03:02:33;;;;;;;13.03;9.30;;;4.00;99.90;;;;;;5030958;28;20236;-77
2022/03/20 03:04:59;;;;;;;12.97;8.60;;;4.00;99.90;;;;;;5031622;28;20650;-77
2022/03/20 03:07:31;;;;;;;17.67;8.93;;;4.00;99.90;;;;;;5046865;28;20177;-79
2022/03/20 03:10:59;;;;;;;13.73;8.60;;;4.00;99.90;;;;;;5031850;28;20203;-78
2022/03/20 03:12:52;;;;;;;13.10;8.53;;;3.90;99.90;;;;;;5047641;28;20555;-78
2022/03/20 03:15:21;;;;;;;13.80;8.60;;;4.00;99.90;;;;;;5048030;28;20179;-78
2022/03/20 03:17:50;;;;;;;15.70;9.13;;;4.00;99.90;;;;;;5038490;28;20272;-79
2022/03/20 03:20:19;;;;;;;13.47;8.63;;;3.90;99.90;;;;;;5030419;28;20673;-78
2022/03/20 03:22:45;;;;;;;15.27;9.33;;;3.90;99.90;;;;;;5039086;28;20221;-80
2022/03/20 03:25:12;;;;;;;12.40;8.73;;;3.90;99.90;;;;;;5037588;28;20209;-78
2022/03/20 03:27:37;;;;;;;12.73;9.03;;;3.90;99.90;;;;;;5042262;28;20177;-78
2022/03/20 03:30:04;;;;;;;12.27;8.53;;;3.90;99.90;;;;;;5047294;28;20193;-78
2022/03/20 03:32:30;;;;;;;14.43;9.63;;;3.90;99.90;;;;;;5044119;28;20180;-78
2022/03/20 03:37:40;;;;;;;15.03;9.53;;;3.90;99.90;;;;;;5041111;28;20205;-77
2022/03/20 03:40:07;;;;;;;13.70;9.37;;;3.80;99.90;;;;;;5036570;28;20194;-78
2022/03/20 03:42:34;;;;;;;17.07;9.67;;;3.80;99.90;;;;;;5042827;28;20217;-78
2022/03/20 03:45:01;;;;;;;18.83;11.03;;;3.70;99.90;;;;;;5038960;28;20204;-79
2022/03/20 03:47:28;;;;;;;14.57;9.70;;;3.80;99.90;;;;;;5048555;28;20182;-78
2022/03/20 03:49:54;;;;;;;16.17;10.43;;;3.80;99.90;;;;;;5051575;28;20244;-78
2022/03/20 03:52:20;;;;;;;13.87;9.37;;;3.70;99.90;;;;;;5052140;28;20205;-79
2022/03/20 03:54:46;;;;;;;12.63;9.03;;;3.70;99.90;;;;;;5050734;28;20184;-77
2022/03/20 03:57:12;;;;;;;15.23;9.30;;;3.70;99.90;;;;;;5054715;28;20206;-76
2022/03/20 03:59:38;;;;;;;16.20;9.83;;;3.70;99.90;;;;;;5056950;28;20191;-76
2022/03/20 04:02:04;;;;;;;13.67;9.43;;;3.70;99.90;;;;;;5055876;28;20207;-76
2022/03/20 04:04:30;;;;;;;14.73;9.30;;;3.70;99.90;;;;;;5032294;28;20180;-76
2022/03/20 04:06:56;;;;;;;15.93;9.57;;;3.60;99.90;;;;;;5035601;28;20184;-78
2022/03/20 04:09:22;;;;;;;14.43;9.53;;;3.70;99.90;;;;;;5050848;28;20199;-78
2022/03/20 04:11:48;;;;;;;16.43;9.90;;;3.60;99.90;;;;;;5042526;28;20204;-76
2022/03/20 04:14:14;;;;;;;15.40;9.23;;;3.60;99.90;;;;;;5031575;28;20173;-79
2022/03/20 04:16:39;;;;;;;15.30;9.83;;;3.60;99.90;;;;;;5050875;28;20235;-76
2022/03/20 04:19:05;;;;;;;15.53;9.87;;;3.60;99.90;;;;;;5056054;28;20263;-78
2022/03/20 04:21:31;;;;;;;15.60;9.40;;;3.50;99.90;;;;;;5053712;28;20645;-78
2022/03/20 04:23:56;;;;;;;16.30;9.97;;;3.50;99.90;;;;;;5031906;28;20214;-78
2022/03/20 04:26:24;;;;;;;18.30;9.37;;;3.50;99.90;;;;;;5037371;28;20177;-78
2022/03/20 04:28:52;;;;;;;14.57;9.80;;;3.40;99.90;;;;;;5058123;28;20230;-78
2022/03/20 04:31:19;;;;;;;17.40;10.37;;;3.40;99.90;;;;;;5050817;28;20180;-78
2022/03/20 04:33:53;;;;;;;16.63;10.77;;;3.40;99.90;;;;;;5047501;28;20203;-77
2022/03/20 04:36:23;;;;;;;14.80;9.87;;;3.50;99.90;;;;;;5031421;28;20184;-77
2022/03/20 04:38:51;;;;;;;17.80;10.10;;;3.40;99.90;;;;;;5029257;28;20200;-76
2022/03/20 04:41:17;;;;;;;15.13;10.30;;;3.40;99.90;;;;;;5035946;28;20178;-78
2022/03/20 04:43:48;;;;;;;13.23;9.30;;;3.40;99.90;;;;;;5045613;28;20812;-78
2022/03/20 04:46:14;;;;;;;16.90;10.50;;;3.40;99.90;;;;;;5039305;28;20176;-77
2022/03/20 04:59:36;;;;;;;16.03;10.27;;;3.40;99.90;;;;;;5062878;28;20208;-78
2022/03/20 05:02:02;;;;;;;13.90;9.97;;;3.40;99.90;;;;;;5037612;28;20201;-77
2022/03/20 05:04:28;;;;;;;14.77;10.77;;;3.40;99.90;;;;;;5033818;28;20539;-76
2022/03/20 05:06:54;;;;;;;18.20;11.03;;;3.40;99.90;;;;;;5043561;28;20183;-78
2022/03/20 05:14:48;;;;;;;14.43;10.47;;;3.20;99.90;;;;;;5041049;28;20187;-80
2022/03/20 05:17:14;;;;;;;18.97;10.97;;;3.20;99.90;;;;;;5048908;28;20266;-78
2022/03/20 05:19:40;;;;;;;17.53;10.30;;;3.20;99.90;;;;;;5036995;28;20255;-78
2022/03/20 05:22:10;;;;;;;15.63;10.17;;;3.20;99.90;;;;;;5035915;28;20206;-77
2022/03/20 05:24:37;;;;;;;17.43;11.67;;;3.20;99.90;;;;;;5040596;28;20177;-78
2022/03/20 05:27:04;;;;;;;17.63;10.80;;;3.20;99.90;;;;;;5058312;28;20168;-77
2022/03/20 05:29:30;;;;;;;17.93;10.23;;;3.20;99.90;;;;;;5060867;28;20197;-77
2022/03/20 05:31:56;;;;;;;17.60;11.13;;;3.20;99.90;;;;;;5048481;28;20272;-79
2022/03/20 05:34:22;;;;;;;16.40;10.93;;;3.20;99.90;;;;;;5054979;28;20169;-78
2022/03/20 05:36:49;;;;;;;17.30;10.73;;;3.20;99.90;;;;;;5053432;28;20176;-79
2022/03/20 05:39:15;;;;;;;16.00;10.50;;;3.10;99.90;;;;;;5053668;28;20199;-79
2022/03/20 05:41:48;;;;;;;16.77;9.87;;;3.10;99.90;;;;;;5051695;28;20171;-76
2022/03/20 05:44:15;;;;;;;15.47;9.80;;;3.00;99.90;;;;;;5040551;28;20165;-78
2022/03/20 05:46:46;;;;;;;15.67;9.90;;;3.10;99.90;;;;;;5051943;28;20177;-77
2022/03/20 05:49:12;;;;;;;17.93;10.97;;;3.10;99.90;;;;;;5061570;28;20190;-76
2022/03/20 05:51:38;;;;;;;17.67;10.30;;;3.10;99.90;;;;;;5073078;28;20198;-77
2022/03/20 05:54:05;;;;;;;16.87;10.27;;;3.10;99.90;;;;;;5059729;28;20202;-78
2022/03/20 05:59:15;;;;;;;19.17;11.67;;;3.00;99.90;;;;;;5058148;28;20282;-78
2022/03/20 06:01:41;;;;;;;19.20;9.87;;;3.00;99.90;;;;;;5050511;28;20185;-78
2022/03/20 06:04:08;;;;;;;20.90;11.23;;;3.10;99.90;;;;;;5043050;28;20173;-77
2022/03/20 06:06:35;;;;;;;17.83;10.87;;;3.00;99.90;;;;;;5038934;28;20172;-80
2022/03/20 06:09:01;;;;;;;21.50;10.33;;;3.00;99.90;;;;;;5052386;28;20194;-78
2022/03/20 06:11:27;;;;;;;15.87;9.83;;;3.00;99.90;;;;;;5040748;28;20235;-81
2022/03/20 06:13:53;;;;;;;15.93;10.27;;;3.00;99.90;;;;;;5044466;28;20203;-78
2022/03/20 06:16:21;;;;;;;17.43;10.53;;;3.00;99.90;;;;;;5037097;28;20267;-78
2022/03/20 06:18:47;;;;;;;17.90;10.33;;;3.00;99.90;;;;;;5048423;28;20234;-78
2022/03/20 06:21:13;;;;;;;16.70;10.13;;;3.00;99.90;;;;;;5051542;28;20199;-78
2022/03/20 06:23:39;;;;;;;16.93;10.27;;;3.00;99.90;;;;;;5059369;28;20198;-80
2022/03/20 06:26:06;;;;;;;16.20;10.13;;;3.00;99.90;;;;;;5047304;28;20187;-77
2022/03/20 06:28:32;;;;;;;18.83;11.20;;;3.00;99.90;;;;;;5064617;28;20176;-76
2022/03/20 06:30:58;;;;;;;19.37;10.33;;;3.00;99.90;;;;;;5047508;28;20180;-78
2022/03/20 06:33:27;;;;;;;16.67;10.10;;;3.00;99.90;;;;;;5044013;28;20186;-79
2022/03/20 06:35:54;;;;;;;17.53;10.73;;;3.00;99.90;;;;;;5059701;28;20742;-77
2022/03/20 06:38:20;;;;;;;17.27;10.30;;;3.00;99.90;;;;;;5058519;28;20183;-78
2022/03/20 06:40:46;;;;;;;17.70;10.13;;;3.00;99.90;;;;;;5039099;28;20204;-76
2022/03/20 06:43:13;;;;;;;18.30;10.80;;;3.00;99.90;;;;;;5050517;28;20202;-78
2022/03/20 06:45:41;;;;;;;19.67;10.73;;;3.10;99.90;;;;;;5064357;28;20282;-78
2022/03/20 06:48:07;;;;;;;18.13;10.60;;;3.10;99.90;;;;;;5061481;28;20215;-79
2022/03/20 06:50:33;;;;;;;16.17;10.37;;;3.20;99.90;;;;;;5049548;28;20270;-79
2022/03/20 06:53:03;;;;;;;20.83;10.97;;;3.20;99.90;;;;;;5056536;28;20180;-78
2022/03/20 06:55:30;;;;;;;16.83;10.80;;;3.30;99.90;;;;;;5046153;28;20189;-78
2022/03/20 06:57:57;;;;;;;18.80;11.13;;;3.30;99.90;;;;;;5040062;28;20180;-80
2022/03/20 07:00:23;;;;;;;15.83;10.67;;;3.30;99.90;;;;;;5032244;28;20257;-77
2022/03/20 07:02:49;;;;;;;22.60;12.00;;;3.30;99.90;;;;;;5042523;28;20654;-81
2022/03/20 07:05:14;;;;;;;17.07;10.53;;;3.30;99.90;;;;;;5041126;28;20187;-78
2022/03/20 07:07:40;;;;;;;17.60;11.13;;;3.30;99.90;;;;;;5053045;28;20662;-77
2022/03/20 07:10:07;;;;;;;18.87;11.07;;;3.40;99.90;;;;;;5050496;28;20247;-79
2022/03/20 07:12:33;;;;;;;17.20;10.43;;;3.50;99.90;;;;;;5061131;28;20184;-77
2022/03/20 07:14:59;;;;;;;19.60;11.23;;;3.50;99.90;;;;;;5036197;28;20184;-76
2022/03/20 07:17:28;;;;;;;18.90;11.07;;;3.50;99.90;;;;;;5039867;28;20193;-77
2022/03/20 07:19:54;;;;;;;16.63;10.47;;;3.50;99.90;;;;;;5048388;28;20201;-76
2022/03/20 07:22:23;;;;;;;18.10;10.40;;;3.50;99.90;;;;;;5038083;28;20212;-78
2022/03/20 07:24:48;;;;;;;18.17;11.47;;;3.50;99.90;;;;;;5043053;28;20177;-77
2022/03/20 07:29:58;;;;;;;18.10;10.23;;;3.60;99.90;;;;;;5049816;28;20274;-76
2022/03/20 07:32:24;;;;;;;14.10;10.43;;;3.60;99.90;;;;;;5030359;28;20187;-78
2022/03/20 07:34:50;;;;;;;21.00;10.97;;;3.70;99.90;;;;;;5044682;28;20177;-79
2022/03/20 07:37:18;;;;;;;16.40;10.43;;;3.70;99.90;;;;;;5036920;28;20184;-77
2022/03/20 07:39:45;;;;;;;15.50;10.63;;;3.80;99.90;;;;;;5034520;28;20209;-77
2022/03/20 07:42:12;;;;;;;16.97;11.00;;;3.80;99.90;;;;;;5049743;28;20242;-77
2022/03/20 07:44:38;;;;;;;16.70;11.47;;;3.90;99.90;;;;;;5041225;28;20185;-76
2022/03/20 07:47:08;;;;;;;21.80;11.90;;;3.90;99.90;;;;;;5058032;28;20171;-78
2022/03/20 07:49:37;;;;;;;20.83;11.07;;;3.90;99.90;;;;;;5060902;28;20199;-77
2022/03/20 07:52:05;;;;;;;16.90;10.80;;;4.00;99.90;;;;;;5046770;28;20204;-77
2022/03/20 07:54:31;;;;;;;18.87;11.13;;;4.00;99.90;;;;;;5041279;28;20188;-78
2022/03/20 07:56:56;;;;;;;18.43;11.20;;;4.10;99.90;;;;;;5050970;28;20188;-77
2022/03/20 07:59:22;;;;;;;18.03;11.40;;;4.20;99.90;;;;;;5052706;28;20213;-76
2022/03/20 08:01:48;;;;;;;18.37;11.73;;;4.30;99.90;;;;;;5043838;28;20263;-76
2022/03/20 08:04:14;;;;;;;17.03;11.27;;;4.30;99.90;;;;;;5051025;28;20174;-77
2022/03/20 08:06:39;;;;;;;19.67;11.73;;;4.30;99.90;;;;;;5048834;28;20191;-76
2022/03/20 08:09:05;;;;;;;15.57;10.73;;;4.40;99.90;;;;;;5040231;28;20204;-76
2022/03/20 08:11:31;;;;;;;19.53;12.07;;;4.50;99.90;;;;;;5039762;28;20172;-77
2022/03/20 08:13:57;;;;;;;22.03;11.83;;;4.50;99.90;;;;;;5038720;28;20183;-76
2022/03/20 08:16:26;;;;;;;18.40;11.23;;;4.60;99.90;;;;;;5040540;28;20182;-77
2022/03/20 08:18:56;;;;;;;17.90;11.57;;;4.60;99.90;;;;;;5029809;28;20287;-77
2022/03/20 08:21:22;;;;;;;19.67;11.30;;;4.70;99.90;;;;;;5035742;28;20172;-77
2022/03/20 08:23:48;;;;;;;19.93;11.03;;;4.70;99.90;;;;;;5044703;28;20193;-77
2022/03/20 08:26:14;;;;;;;18.63;11.70;;;4.80;99.90;;;;;;5044221;28;20188;-76
2022/03/20 08:28:44;;;;;;;21.93;12.27;;;4.80;99.90;;;;;;5058926;28;20202;-76
2022/03/20 08:31:10;;;;;;;17.67;11.80;;;4.90;99.90;;;;;;5045708;28;20178;-76
2022/03/20 08:33:36;;;;;;;20.00;11.23;;;4.90;99.90;;;;;;5050581;28;20523;-77
2022/03/20 08:36:04;;;;;;;17.83;11.87;;;4.90;99.90;;;;;;5053025;28;20274;-75
2022/03/20 08:38:30;;;;;;;21.83;11.73;;;5.00;99.90;;;;;;5067029;28;20277;-75
2022/03/20 08:40:56;;;;;;;18.20;11.87;;;5.10;99.90;;;;;;5074649;28;20209;-76
2022/03/20 08:43:22;;;;;;;18.43;12.47;;;5.20;99.90;;;;;;5068148;28;20218;-75
2022/03/20 08:45:49;;;;;;;18.63;12.03;;;5.20;99.90;;;;;;5052902;28;20202;-74
2022/03/20 08:48:14;;;;;;;19.97;12.67;;;5.30;99.90;;;;;;5046717;28;20221;-75
2022/03/20 08:50:44;;;;;;;20.87;13.33;;;5.30;99.90;;;;;;5042895;28;20199;-75
2022/03/20 08:53:10;;;;;;;19.50;11.93;;;5.30;99.90;;;;;;5043394;28;20182;-74
2022/03/20 08:55:36;;;;;;;23.80;12.50;;;5.40;99.90;;;;;;5052310;28;20609;-75
2022/03/20 08:58:04;;;;;;;23.37;12.43;;;5.50;99.90;;;;;;5052555;28;20630;-75
2022/03/20 09:00:32;;;;;;;16.87;11.60;;;5.60;99.90;;;;;;5038711;28;20197;-75
2022/03/20 09:02:57;;;;;;;19.80;12.43;;;5.70;99.90;;;;;;5044337;28;20209;-75
2022/03/20 09:05:23;;;;;;;18.97;12.23;;;5.70;99.90;;;;;;5033730;28;20172;-75
2022/03/20 09:07:50;;;;;;;20.13;12.33;;;5.80;99.90;;;;;;5043096;28;20187;-76
2022/03/20 09:10:17;;;;;;;24.33;13.77;;;5.80;99.90;;;;;;5045298;28;20199;-75
2022/03/20 09:12:43;;;;;;;20.50;12.90;;;5.90;99.90;;;;;;5051054;28;20266;-76
2022/03/20 09:15:15;;;;;;;18.60;12.20;;;5.90;99.90;;;;;;5046921;28;20202;-76
2022/03/20 09:20:27;;;;;;;22.77;12.60;;;6.00;99.90;;;;;;5043601;28;20207;-76
2022/03/20 09:22:54;;;;;;;18.90;12.03;;;6.20;99.90;;;;;;5036064;28;20200;-76
2022/03/20 09:25:19;;;;;;;22.90;13.30;;;6.20;99.90;;;;;;5039263;28;20180;-77
2022/03/20 09:27:48;;;;;;;19.87;13.33;;;6.20;99.90;;;;;;5053768;28;20199;-75
2022/03/20 09:30:17;;;;;;;24.70;13.23;;;6.30;99.90;;;;;;5044714;28;20768;-78
2022/03/20 09:32:43;;;;;;;19.23;12.17;;;6.30;99.90;;;;;;5056862;28;20257;-78
2022/03/20 09:35:09;;;;;;;19.07;12.13;;;6.40;99.90;;;;;;5056352;28;20224;-76
2022/03/20 09:37:35;;;;;;;18.50;12.80;;;6.50;99.90;;;;;;5044863;28;20211;-77
2022/03/20 09:40:03;;;;;;;19.17;12.30;;;6.60;99.90;;;;;;5054568;28;20608;-76
2022/03/20 09:42:28;;;;;;;19.07;11.93;;;6.60;99.90;;;;;;5037637;28;20298;-76
2022/03/20 09:44:55;;;;;;;20.50;13.27;;;6.70;99.90;;;;;;5051817;28;20218;-77
2022/03/20 09:47:23;;;;;;;20.43;13.80;;;6.80;99.90;;;;;;5049177;28;20186;-76
2022/03/20 09:49:50;;;;;;;23.93;12.77;;;6.80;99.90;;;;;;5054019;28;20292;-75
2022/03/20 09:52:19;;;;;;;17.00;12.67;;;6.90;99.90;;;;;;5033665;28;20578;-76
2022/03/20 09:54:45;;;;;;;19.70;12.77;;;7.00;99.90;;;;;;5049769;28;20176;-76
2022/03/20 09:57:11;;;;;;;18.97;12.37;;;7.10;99.90;;;;;;5046236;28;20243;-75
2022/03/20 09:59:38;;;;;;;20.30;12.60;;;7.10;99.90;;;;;;5056326;28;20204;-76
2022/03/20 10:02:06;;;;;;;19.37;13.23;;;7.20;99.90;;;;;;5047822;28;20180;-76
2022/03/20 10:04:34;;;;;;;20.80;12.67;;;7.20;99.90;;;;;;5040489;28;20180;-77
2022/03/20 10:07:00;;;;;;;17.20;12.83;;;7.30;99.90;;;;;;5039969;28;20171;-77
2022/03/20 10:09:26;;;;;;;19.57;12.13;;;7.40;99.90;;;;;;5050344;28;21097;-76
2022/03/20 10:11:54;;;;;;;19.47;13.13;;;7.40;99.90;;;;;;5043327;28;20232;-77
2022/03/20 10:14:31;;;;;;;20.80;12.77;;;7.50;99.90;;;;;;5032947;28;20221;-75
2022/03/20 10:17:16;;;;;;;24.37;12.77;;;7.60;99.90;;;;;;5041361;28;20184;-76
2022/03/20 10:19:42;;;;;;;20.97;13.00;;;7.60;99.90;;;;;;5054938;28;20203;-76
2022/03/20 10:22:14;;;;;;;22.33;12.57;;;7.70;99.90;;;;;;5050443;28;20217;-75
2022/03/20 10:24:52;;;;;;;19.50;13.17;;;7.80;99.90;;;;;;5050691;28;20179;-75
2022/03/20 10:27:18;;;;;;;17.90;12.20;;;7.90;99.90;;;;;;5054668;28;20240;-75
2022/03/20 10:29:53;;;;;;;19.80;12.43;;;8.00;99.90;;;;;;5069873;28;20194;-75
2022/03/20 10:32:19;;;;;;;23.63;13.90;;;8.00;99.90;;;;;;5049627;28;20167;-76
2022/03/20 10:34:50;;;;;;;17.57;12.33;;;8.10;99.90;;;;;;5045395;28;20242;-75
2022/03/20 10:37:18;;;;;;;19.43;12.67;;;8.20;99.90;;;;;;5040571;28;20192;-76
2022/03/20 10:39:44;;;;;;;20.73;13.40;;;8.20;99.90;;;;;;5046169;28;20208;-76
2022/03/20 10:42:14;;;;;;;19.40;13.07;;;8.30;99.90;;;;;;5057698;28;20202;-75
2022/03/20 10:44:40;;;;;;;16.50;12.27;;;8.30;99.90;;;;;;5047285;28;20175;-75
2022/03/20 10:47:16;;;;;;;22.23;13.23;;;8.40;99.90;;;;;;5039357;28;20176;-76
2022/03/20 10:50:06;;;;;;;20.73;12.67;;;8.40;99.90;;;;;;5058645;28;20267;-77
2022/03/20 10:52:35;;;;;;;19.47;12.87;;;8.60;99.90;;;;;;5030980;28;20195;-73
2022/03/20 10:55:07;;;;;;;19.20;13.20;;;8.70;99.90;;;;;;5042958;28;20187;-76
2022/03/20 10:57:33;;;;;;;19.03;12.30;;;8.70;99.90;;;;;;5044505;28;20175;-75
2022/03/20 11:00:04;;;;;;;16.67;12.23;;;8.80;99.90;;;;;;5047741;28;20207;-76
2022/03/20 11:02:29;;;;;;;24.40;12.40;;;8.90;99.90;;;;;;5030173;28;20200;-76
2022/03/20 11:04:55;;;;;;;18.43;12.57;;;9.00;99.90;;;;;;5034322;28;20180;-76
2022/03/20 11:07:23;;;;;;;17.97;13.03;;;9.10;99.90;;;;;;5030610;28;20759;-76
2022/03/20 11:09:50;;;;;;;18.43;11.97;;;9.20;99.90;;;;;;5042774;28;20196;-76
2022/03/20 11:12:32;;;;;;;23.43;13.53;;;9.20;99.90;;;;;;5049185;28;20176;-76
2022/03/20 11:15:00;;;;;;;20.67;12.80;;;9.30;99.90;;;;;;5047018;28;20185;-75
2022/03/20 11:17:35;;;;;;;22.20;13.40;;;9.40;99.90;;;;;;5030270;28;20233;-76
2022/03/20 11:20:02;;;;;;;20.50;12.33;;;9.40;99.90;;;;;;5036795;28;20219;-76
2022/03/20 11:22:29;;;;;;;17.83;11.93;;;9.50;99.90;;;;;;5047083;28;20195;-76
2022/03/20 11:24:56;;;;;;;17.13;12.13;;;9.60;99.90;;;;;;5048466;28;20651;-76
2022/03/20 11:27:24;;;;;;;19.00;12.33;;;9.60;99.90;;;;;;5037507;28;20277;-77
2022/03/20 11:29:50;;;;;;;21.73;13.37;;;9.60;99.90;;;;;;5049038;28;20199;-76
2022/03/20 11:32:17;;;;;;;19.83;11.90;;;9.70;99.90;;;;;;5035026;28;20179;-75
2022/03/20 11:34:46;;;;;;;17.63;11.93;;;9.70;99.90;;;;;;5041843;28;20184;-76
2022/03/20 11:37:15;;;;;;;20.37;12.60;;;9.70;99.90;;;;;;5035867;28;20251;-76
2022/03/20 11:40:20;;;;;;;16.20;11.90;;;9.80;99.90;;;;;;5036676;28;20295;-76
2022/03/20 11:42:47;;;;;;;17.73;12.37;;;9.90;99.90;;;;;;5041220;28;20203;-77
2022/03/20 11:45:17;;;;;;;17.63;12.37;;;9.90;99.90;;;;;;5040013;28;20567;-76
2022/03/20 11:47:45;;;;;;;19.33;11.77;;;10.00;99.90;;;;;;5042737;28;20269;-76
2022/03/20 11:50:39;;;;;;;18.70;12.27;;;10.00;99.90;;;;;;5042767;28;20212;-79
2022/03/20 11:53:06;;;;;;;16.93;11.67;;;10.10;99.90;;;;;;5042735;28;20190;-77
2022/03/20 11:55:48;;;;;;;18.50;12.93;;;10.10;99.90;;;;;;5040113;28;20195;-76
2022/03/20 11:58:16;;;;;;;23.20;12.60;;;10.10;99.90;;;;;;5040936;28;20281;-77
2022/03/20 12:00:44;;;;;;;17.77;12.40;;;10.20;99.90;;;;;;5038752;28;20294;-76
2022/03/20 12:03:12;;;;;;;17.77;11.80;;;10.20;99.90;;;;;;5039493;28;20199;-77
2022/03/20 12:05:41;;;;;;;21.10;12.27;;;10.30;99.90;;;;;;5041702;28;20266;-76
2022/03/20 12:08:44;;;;;;;19.47;12.37;;;10.40;99.90;;;;;;5043274;28;20215;-78
2022/03/20 12:11:29;;;;;;;20.67;11.90;;;10.40;99.90;;;;;;5041454;28;20718;-77
2022/03/20 12:14:10;;;;;;;19.67;12.00;;;10.50;99.90;;;;;;5040771;28;20249;-77
2022/03/20 12:16:42;;;;;;;21.10;12.50;;;10.60;99.90;;;;;;5044750;28;20203;-77
2022/03/20 12:19:15;;;;;;;21.40;12.10;;;10.50;99.90;;;;;;5044475;28;20211;-77
2022/03/20 12:22:00;;;;;;;16.17;12.07;;;10.60;99.90;;;;;;5043945;28;20179;-78
2022/03/20 12:24:38;;;;;;;19.20;11.93;;;10.70;99.90;;;;;;5042483;28;20189;-77
2022/03/20 12:27:22;;;;;;;20.17;13.20;;;10.70;99.90;;;;;;5041846;28;20273;-77
2022/03/20 12:30:03;;;;;;;16.20;11.90;;;10.70;99.90;;;;;;5040412;28;20298;-77
2022/03/20 12:32:51;;;;;;;21.20;12.30;;;10.70;99.90;;;;;;5042489;28;20187;-77
2022/03/20 12:35:18;;;;;;;18.37;11.93;;;10.70;99.90;;;;;;5044479;28;20210;-77
2022/03/20 12:37:44;;;;;;;20.60;12.93;;;10.70;99.90;;;;;;5042039;28;20615;-78
2022/03/20 12:40:13;;;;;;;19.50;12.80;;;10.80;99.90;;;;;;5044687;28;20208;-78
2022/03/20 12:42:43;;;;;;;19.77;12.97;;;10.80;99.90;;;;;;5043628;28;20215;-76
2022/03/20 12:45:14;;;;;;;19.30;12.40;;;10.90;99.90;;;;;;5042119;28;20212;-76
2022/03/20 12:47:59;;;;;;;17.90;12.77;;;10.90;99.90;;;;;;5043413;28;20184;-76
2022/03/20 12:50:27;;;;;;;18.33;11.90;;;11.00;99.90;;;;;;5041750;28;20203;-78
2022/03/20 12:53:01;;;;;;;17.10;12.57;;;11.00;99.90;;;;;;5039506;28;20262;-77
2022/03/20 12:55:27;;;;;;;19.90;12.90;;;11.00;99.90;;;;;;5039162;28;20647;-78
2022/03/20 12:57:53;;;;;;;19.30;13.17;;;11.00;99.90;;;;;;5044411;28;20191;-77
2022/03/20 13:00:22;;;;;;;20.73;13.77;;;11.00;99.90;;;;;;5043889;28;20242;-77
2022/03/20 13:03:13;;;;;;;17.17;12.20;;;11.00;99.90;;;;;;5039175;28;20211;-77
2022/03/20 13:06:00;;;;;;;16.47;11.53;;;11.10;99.90;;;;;;5041789;28;20192;-76
2022/03/20 13:08:34;;;;;;;20.67;11.73;;;11.10;99.90;;;;;;5040974;28;20192;-77
2022/03/20 13:14:01;;;;;;;17.50;11.60;;;11.20;99.90;;;;;;5046250;28;20209;-76
2022/03/20 13:16:28;;;;;;;17.30;11.43;;;11.20;99.90;;;;;;5046369;28;20206;-76